Portada
METAR-TAF:

METAR-TAF

Aeroports :

Lansing Municipal Airport

Lansing, Illinois, Estats Units d'Amèrica

latitud: 41-32-24N, longitud: 087-31-56W, altitud: 188 m

Observació

L'informe es va fer fa 20 minuts, a les 07:55 UTC
Vent 11 kt del Oest/Nord-Oest amb ràfegues de 17 kt
Temperatura 6°C
Humitat 75%
Pressió 1015 hPa
Visibilitat: 16.1 km
Cel cobert a una alçada de 2900 ft

METAR: KIGQ 300755Z AUTO 29011G17KT 10SM OVC029 06/02 A2997 RMK AO2 T00600015

Hora: 03:15 (08:15 UTC)


TAF: manca

Observacions i pronòstics meteorològics de més de 4000 aeroports (METAR i TAF).

Les estacions disponibles són els punts grocs i vermells al mapa.

Posi el ratolí al punt desitjat per veure el nom de l'estació.

Feu clic per veure les observacions i els pronòstics meteorològics.

Per canviar el mapa: feu clic els botons verds amb una creu de color negre per apropar; al botó verd amb un guió per allunyar la imatge; o en les fletxes verdes per a mapes adjacents.


METAR-TAF: